Latest Weather Observations for Lochington

IDQ60801

Issued at 11:35 am EST Thursday 23 October 2014 (issued every 30 minutes, with the page automatically refreshed every 10 minutes)

About weather observations | Map of weather stations | Latest weather observations for QLD | Other Formats
Station Details ID: 035139 Name: LOCHINGTON Lat: -23.94 Lon: 147.53 Height: 267.19 m
Data from the previous 72 hours. | See also: Recent months at Lochington
Date/Time
EST
Temp
°C
App
Temp
°C
Dew
Point
Rel
Hum
%
Delta-T
°C
Wind Press
QNH
hPa
Press
MSL
hPa
Rain
since 9 am
mm
Dir
 
Spd
km/h
Gust
km/h
Spd
kts
Gust
kts
23/11:30am 26.8 25.7 10.5 36 9.2 E 7 13 4 7 1020.5 1019.1 0.0
23/11:00am 26.8 26.3 12.1 40 8.5 E 6 13 3 7 1020.8 1019.4 0.0
23/10:30am 25.5 25.3 11.7 42 7.9 NE 4 13 2 7 1021.3 1020.0 0.0
23/10:00am 24.6 24.1 11.9 45 7.3 NE 6 11 3 6 1021.6 1020.3 0.0
23/09:30am 24.2 23.9 12.8 49 6.6 E 6 13 3 7 1022.0 1020.7 0.0
23/09:00am 22.4 21.3 12.1 52 5.9 NE 9 17 5 9 1022.2 1020.9 -
23/08:30am 21.9 21.4 11.9 53 5.7 NNE 6 13 3 7 1022.5 1021.2 -
23/08:00am 20.9 20.4 12.1 57 5.0 ESE 6 9 3 5 1022.7 1021.4 -
23/07:30am 20.0 19.3 12.0 60 4.5 E 7 11 4 6 1022.5 1021.2 -
23/07:00am 19.1 17.2 11.9 63 4.0 E 13 17 7 9 1022.0 1020.7 -
23/06:30am 17.7 17.7 12.4 71 3.0 ESE 4 6 2 3 1022.2 1020.9 -
23/06:00am 15.8 15.3 12.2 79 2.0 E 6 6 3 3 1021.9 1020.6 -
23/05:30am 15.8 15.3 12.5 81 1.8 E 7 9 4 5 1021.4 1020.1 -
23/05:00am 16.3 15.8 12.8 80 2.0 E 7 11 4 6 1021.2 1019.9 -
23/04:30am 16.8 16.1 13.3 80 2.0 ENE 9 11 5 6 1020.9 1019.5 -
23/04:00am 17.0 16.3 13.3 79 2.1 ENE 9 13 5 7 1020.6 1019.2 -
23/03:30am 17.3 17.1 13.0 76 2.4 NE 6 9 3 5 1020.6 1019.2 -
23/03:00am 17.8 17.6 13.1 74 2.7 NE 6 11 3 6 1020.5 1019.1 0.0
23/02:30am 18.6 18.3 13.2 71 3.1 NNE 7 13 4 7 1020.6 1019.2 -
23/02:00am 19.4 17.7 13.6 69 3.3 NE 15 26 8 14 1020.6 1019.2 -
23/01:30am 20.0 18.3 13.5 66 3.8 NNE 15 24 8 13 1020.8 1019.4 -
23/01:00am 20.5 18.5 12.7 61 4.5 NE 15 26 8 14 1021.0 1019.6 -
23/12:30am 20.9 19.1 12.1 57 5.0 NE 13 19 7 10 1021.0 1019.6 -
23/12:00am 21.2 19.2 10.1 49 6.1 ENE 11 17 6 9 1020.9 1019.5 -
 
Date/Time
EST
Temp
°C
App
Temp
°C
Dew
Point
Rel
Hum
%
Delta-T
°C
Wind Press
QNH
hPa
Press
MSL
hPa
Rain
since 9 am
mm
Dir
 
Spd
km/h
Gust
km/h
Spd
kts
Gust
kts
22/11:30pm 21.6 19.0 7.8 41 7.3 E 11 15 6 8 1020.8 1019.4 -
22/11:00pm 20.9 19.4 8.5 45 6.6 ENE 6 9 3 5 1020.7 1019.3 -
22/10:30pm 19.4 18.7 8.7 50 5.7 N 2 6 1 3 1020.6 1019.2 -
22/10:00pm 20.0 19.7 8.7 48 6.0 CALM 0 0 0 0 1020.5 1019.1 -
22/09:30pm 20.7 20.4 8.7 46 6.4 CALM 0 0 0 0 1020.1 1018.7 -
22/09:00pm 21.6 21.1 7.8 41 7.2 CALM 0 0 0 0 1019.8 1018.5 0.0
22/08:30pm 23.9 21.9 7.1 34 8.9 ENE 7 9 4 5 1019.3 1018.0 -
22/08:00pm 25.9 23.2 7.5 31 9.9 ENE 11 13 6 7 1019.0 1017.7 -
22/07:30pm 25.6 23.6 7.2 31 9.8 ENE 7 9 4 5 1018.8 1017.5 -
22/07:00pm 25.7 23.7 7.3 31 9.8 ENE 7 11 4 6 1018.6 1017.3 -
22/06:30pm 26.5 24.0 6.5 28 10.6 E 9 11 5 6 1018.4 1017.1 -
22/06:00pm 28.3 25.1 7.0 26 11.5 E 13 19 7 10 1018.2 1016.9 -
22/05:30pm 29.2 24.9 5.3 22 12.6 ESE 17 24 9 13 1018.1 1016.8 -
22/05:00pm 29.6 25.9 6.3 23 12.5 ESE 15 35 8 19 1018.0 1016.7 -
22/04:30pm 30.1 27.1 7.9 25 12.3 ESE 13 26 7 14 1017.9 1016.6 -
22/04:00pm 29.9 26.3 8.3 26 12.0 SE 17 28 9 15 1018.0 1016.7 -
22/03:30pm 30.0 28.3 10.0 29 11.4 E 9 22 5 12 1018.2 1016.9 -
22/03:00pm 29.9 27.6 10.5 30 11.2 E 13 20 7 11 1018.6 1017.3 -
22/02:00pm 28.1 26.4 11.2 35 9.7 E 11 22 6 12 1019.5 1018.2 -
22/01:00pm 28.3 27.7 12.2 37 9.4 NNE 7 19 4 10 1020.5 1019.1 -
22/09:30am 23.9 22.4 13.2 51 6.3 ENE 13 19 7 10 1024.1 1022.7 0.0
22/09:00am 22.9 20.7 13.4 55 5.5 ENE 17 28 9 15 1024.2 1022.8 0.0
22/08:30am 22.2 20.1 13.5 57 5.1 NE 17 28 9 15 1024.3 1022.9 0.0
22/08:00am 21.1 19.8 13.8 63 4.3 ENE 13 22 7 12 1024.4 1023.0 0.0
22/07:30am 20.2 19.3 13.6 66 3.8 ENE 11 19 6 10 1024.2 1022.8 0.0
22/07:00am 19.1 18.7 12.4 65 3.8 ESE 6 7 3 4 1024.2 1022.8 0.0
22/06:30am 16.8 17.2 11.1 69 3.1 CALM 0 0 0 0 1023.8 1022.5 0.0
22/06:00am 15.9 15.9 11.3 74 2.5 E 2 4 1 2 1023.8 1022.5 0.0
22/05:30am 15.5 15.1 11.1 75 2.4 E 4 4 2 2 1023.6 1022.3 0.0
22/05:00am 15.5 14.9 10.5 72 2.7 ESE 4 4 2 2 1023.2 1021.9 0.0
22/04:30am 15.7 15.4 10.2 70 2.9 ESE 2 4 1 2 1023.0 1021.7 0.0
22/04:00am 16.1 15.4 10.0 67 3.2 ESE 4 4 2 2 1022.8 1021.5 0.0
22/03:30am 16.0 15.0 9.0 63 3.6 ENE 4 7 2 4 1022.8 1021.5 0.0
22/03:00am 16.9 15.6 9.1 60 4.1 NNE 6 7 3 4 1022.7 1021.4 0.0
22/02:30am 16.9 15.3 8.6 58 4.3 NNE 7 7 4 4 1022.7 1021.4 0.0
22/02:00am 17.6 16.3 9.8 60 4.2 NE 7 9 4 5 1022.9 1021.6 0.0
22/01:30am 18.1 16.6 9.2 56 4.7 NE 7 9 4 5 1023.3 1022.0 0.0
22/01:00am 18.6 16.8 8.0 50 5.5 NE 7 9 4 5 1023.5 1022.2 0.0
22/12:30am 19.3 16.4 8.0 48 5.9 NE 13 20 7 11 1023.6 1022.3 0.0
22/12:00am 19.7 16.8 6.4 42 6.7 NE 11 17 6 9 1023.7 1022.4 0.0
 
Date/Time
EST
Temp
°C
App
Temp
°C
Dew
Point
Rel
Hum
%
Delta-T
°C
Wind Press
QNH
hPa
Press
MSL
hPa
Rain
since 9 am
mm
Dir
 
Spd
km/h
Gust
km/h
Spd
kts
Gust
kts
21/11:30pm 20.6 16.8 5.8 38 7.5 NE 15 24 8 13 1023.8 1022.5 0.0
21/11:00pm 21.1 18.2 4.6 34 8.1 NE 9 20 5 11 1023.7 1022.4 0.0
21/10:30pm 21.9 18.4 3.6 30 8.9 NE 11 19 6 10 1023.5 1022.2 0.0
21/10:00pm 22.4 19.0 4.0 30 9.0 NE 11 22 6 12 1023.2 1021.9 0.0
21/09:30pm 23.1 19.1 5.1 31 9.1 NE 15 24 8 13 1023.0 1021.7 0.0
21/09:00pm 22.2 19.8 6.8 37 8.0 NE 9 13 5 7 1022.7 1021.4 0.0
21/08:30pm 23.1 21.1 6.4 34 8.7 E 6 7 3 4 1022.3 1021.0 0.0
21/08:00pm 24.0 21.8 6.3 32 9.2 ENE 7 11 4 6 1021.9 1020.6 0.0
21/07:30pm 24.5 21.9 6.3 31 9.5 NE 9 11 5 6 1021.7 1020.4 0.0
21/07:00pm 25.7 22.8 6.3 29 10.2 E 11 15 6 8 1021.3 1020.0 0.0
21/06:30pm 26.8 23.5 6.2 27 10.9 E 13 19 7 10 1020.9 1019.5 0.0
21/06:00pm 27.8 23.5 5.4 24 11.7 E 17 22 9 12 1020.6 1019.2 0.0
21/05:30pm 28.6 24.1 6.1 24 12.0 E 19 30 10 16 1020.3 1018.9 0.0
21/05:00pm 29.1 25.1 6.5 24 12.1 E 17 24 9 13 1020.1 1018.7 0.0
21/04:30pm 29.6 25.7 6.9 24 12.3 E 17 24 9 13 1019.8 1018.5 0.0
21/04:00pm 30.1 26.5 6.7 23 12.7 E 15 28 8 15 1019.8 1018.5 0.0
21/03:30pm 29.8 25.4 6.5 23 12.6 E 19 30 10 16 1019.9 1018.6 0.0
21/03:00pm 29.7 25.3 6.4 23 12.5 E 19 28 10 15 1020.1 1018.7 0.0
21/02:30pm 30.0 26.1 7.2 24 12.5 E 17 22 9 12 1020.5 1019.1 0.0
21/02:00pm 29.2 24.9 7.2 25 11.9 E 19 28 10 15 1021.0 1019.6 0.0
21/01:30pm 28.1 25.6 8.4 29 10.9 E 11 26 6 14 1021.4 1020.1 0.0
21/01:00pm 27.8 25.1 9.1 31 10.4 E 13 24 7 13 1022.1 1020.8 0.0
21/12:30pm 26.8 23.4 9.2 33 9.8 E 17 28 9 15 1022.8 1021.5 0.0
21/12:00pm 26.6 23.7 9.5 34 9.5 E 15 22 8 12 1023.4 1022.1 0.0
21/11:30am 25.3 22.3 9.2 36 8.9 E 15 28 8 15 1023.9 1022.6 0.0
21/11:00am 24.9 22.0 9.6 38 8.4 E 15 22 8 12 1024.5 1023.2 0.0
21/10:30am 25.1 21.4 10.2 39 8.3 E 20 30 11 16 1025.0 1023.7 0.0
21/10:00am 24.3 20.7 9.8 40 8.0 E 19 28 10 15 1025.3 1024.0 0.0
21/09:30am 23.3 19.9 10.4 44 7.2 E 19 28 10 15 1025.5 1024.2 0.0
21/09:00am 22.9 20.5 11.3 48 6.5 E 15 24 8 13 1025.5 1024.2 0.0
21/08:30am 21.9 19.1 11.3 51 6.0 E 17 24 9 13 1025.5 1024.2 0.0
21/08:00am 21.1 19.1 11.4 54 5.4 ESE 13 28 7 15 1025.4 1024.1 0.0
21/07:30am 20.1 18.5 11.6 58 4.8 E 11 17 6 9 1025.2 1023.9 0.0
21/07:00am 18.6 17.2 10.9 61 4.2 ESE 9 15 5 8 1025.0 1023.7 0.0
21/06:30am 17.1 16.7 11.2 68 3.2 SE 4 6 2 3 1024.7 1023.4 0.0
21/06:00am 15.2 15.3 10.0 71 2.7 CALM 0 4 0 2 1024.3 1022.9 0.0
21/05:30am 15.8 14.7 10.1 69 3.0 ENE 6 7 3 4 1023.8 1022.5 0.0
21/05:00am 15.1 13.8 9.2 68 3.1 E 6 6 3 3 1023.5 1022.2 0.0
21/04:30am 15.5 14.1 9.4 67 3.2 E 7 9 4 5 1023.1 1021.8 0.0
21/04:00am 16.0 14.7 9.9 67 3.2 E 7 9 4 5 1023.0 1021.7 0.0
21/03:30am 16.6 15.6 11.1 70 3.0 E 7 9 4 5 1022.8 1021.5 0.0
21/03:00am 17.9 16.8 12.1 69 3.2 ENE 9 15 5 8 1022.6 1021.3 0.0
21/02:30am 18.3 16.8 11.8 66 3.6 ENE 11 15 6 8 1022.4 1021.1 0.0
21/02:00am 18.5 17.3 11.6 64 3.8 ENE 9 15 5 8 1022.2 1020.9 0.0
21/01:30am 18.8 17.4 10.9 60 4.3 NE 9 17 5 9 1022.0 1020.7 0.0
21/01:00am 19.3 17.8 10.6 57 4.7 NE 9 13 5 7 1022.2 1020.9 0.0
21/12:30am 20.1 17.7 9.9 52 5.5 NE 13 19 7 10 1022.3 1021.0 0.0
21/12:00am 21.0 18.1 9.6 48 6.2 NE 15 24 8 13 1022.6 1021.3 0.0
 
Date/Time
EST
Temp
°C
App
Temp
°C
Dew
Point
Rel
Hum
%
Delta-T
°C
Wind Press
QNH
hPa
Press
MSL
hPa
Rain
since 9 am
mm
Dir
 
Spd
km/h
Gust
km/h
Spd
kts
Gust
kts
20/11:30pm 21.8 18.9 8.3 42 7.2 NE 13 22 7 12 1022.4 1021.1 0.0
20/11:00pm 21.7 18.3 6.0 36 8.0 ENE 13 17 7 9 1022.0 1020.7 0.0
20/10:30pm 19.8 18.5 5.8 40 7.0 E 2 4 1 2 1021.4 1020.1 0.0
20/10:00pm 21.5 19.7 5.4 35 8.1 E 4 4 2 2 1021.6 1020.3 0.0
20/09:30pm 22.8 20.6 5.3 32 8.9 E 6 6 3 3 1021.5 1020.2 0.0
20/09:00pm 23.6 21.4 5.5 31 9.2 E 6 9 3 5 1021.3 1020.0 0.0
20/08:30pm 23.8 22.0 5.2 30 9.5 E 4 6 2 3 1020.9 1019.5 0.0
20/08:00pm 24.6 22.3 4.9 28 10.0 E 6 7 3 4 1020.6 1019.2 0.0
20/07:30pm 25.7 22.9 5.3 27 10.5 ENE 9 11 5 6 1020.3 1018.9 0.0
20/07:00pm 25.1 22.2 4.8 27 10.3 E 9 11 5 6 1019.8 1018.5 0.0
20/06:30pm 26.3 22.9 4.1 24 11.3 E 11 15 6 8 1019.5 1018.2 0.0
20/06:00pm 27.8 24.5 4.8 23 11.9 ESE 11 17 6 9 1019.3 1018.0 0.0
20/05:30pm 29.2 25.1 4.6 21 12.8 ESE 15 22 8 12 1018.9 1017.6 0.0
20/05:00pm 29.7 24.7 3.6 19 13.4 SE 19 28 10 15 1018.7 1017.4 0.0
20/04:30pm 30.3 26.5 4.1 19 13.6 ESE 13 24 7 13 1018.7 1017.4 0.0
20/04:00pm 30.0 25.2 4.6 20 13.3 E 19 30 10 16 1018.6 1017.3 0.0
20/03:30pm 30.2 27.4 6.8 23 12.7 E 11 22 6 12 1018.7 1017.4 0.0
20/03:00pm 29.6 24.7 6.9 24 12.3 ESE 22 28 12 15 1019.0 1017.7 0.0
20/02:30pm 29.7 25.8 7.0 24 12.3 E 17 37 9 20 1019.3 1018.0 0.0
20/02:00pm 29.5 26.7 8.5 27 11.7 E 13 26 7 14 1019.7 1018.4 0.0
20/01:30pm 29.1 26.1 9.3 29 11.1 E 15 26 8 14 1020.5 1019.1 0.0
20/01:00pm 28.5 25.8 10.2 32 10.4 ESE 15 24 8 13 1021.1 1019.8 0.0
20/12:30pm 28.3 25.6 10.5 33 10.2 E 15 24 8 13 1021.8 1020.5 0.0
20/12:00pm 27.1 24.8 10.3 35 9.5 E 13 24 7 13 1022.5 1021.2 0.0

Other Formats:

Comma delimited format used in spreadsheet applications
http://www.bom.gov.au/fwo/IDQ60801/IDQ60801.94399.axf

JavaScript Object Notation format (JSON) in row-major order
http://www.bom.gov.au/fwo/IDQ60801/IDQ60801.94399.json